sensor_id;sensor_type;location;lat;lon;timestamp;P1;durP1;ratioP1;P2;durP2;ratioP2
35685;SDS011;21808;42.142;24.720;2024-02-23T00:01:07;34.53;;;13.73;;
35685;SDS011;21808;42.142;24.720;2024-02-23T00:03:35;31.95;;;13.23;;
35685;SDS011;21808;42.142;24.720;2024-02-23T00:06:03;28.20;;;12.32;;
35685;SDS011;21808;42.142;24.720;2024-02-23T00:08:30;29.58;;;12.15;;
35685;SDS011;21808;42.142;24.720;2024-02-23T00:10:57;25.27;;;11.45;;
35685;SDS011;21808;42.142;24.720;2024-02-23T00:13:25;26.98;;;11.57;;
35685;SDS011;21808;42.142;24.720;2024-02-23T00:15:52;27.13;;;11.30;;
35685;SDS011;21808;42.142;24.720;2024-02-23T00:18:19;29.80;;;12.13;;
35685;SDS011;21808;42.142;24.720;2024-02-23T00:20:46;28.75;;;11.98;;
35685;SDS011;21808;42.142;24.720;2024-02-23T00:23:13;27.80;;;12.75;;
35685;SDS011;21808;42.142;24.720;2024-02-23T00:25:40;30.15;;;13.18;;
35685;SDS011;21808;42.142;24.720;2024-02-23T00:28:07;25.48;;;11.50;;
35685;SDS011;21808;42.142;24.720;2024-02-23T00:30:36;30.00;;;12.95;;
35685;SDS011;21808;42.142;24.720;2024-02-23T00:33:03;33.35;;;12.18;;
35685;SDS011;21808;42.142;24.720;2024-02-23T00:35:30;27.73;;;12.25;;
35685;SDS011;21808;42.142;24.720;2024-02-23T00:37:56;33.20;;;13.98;;
35685;SDS011;21808;42.142;24.720;2024-02-23T00:40:30;29.92;;;12.57;;
35685;SDS011;21808;42.142;24.720;2024-02-23T00:42:57;36.13;;;14.02;;
35685;SDS011;21808;42.142;24.720;2024-02-23T00:45:26;30.88;;;13.88;;
35685;SDS011;21808;42.142;24.720;2024-02-23T00:47:54;32.33;;;13.52;;
35685;SDS011;21808;42.142;24.720;2024-02-23T00:50:21;29.80;;;13.73;;
35685;SDS011;21808;42.142;24.720;2024-02-23T00:52:50;29.25;;;12.85;;
35685;SDS011;21808;42.142;24.720;2024-02-23T00:55:17;35.28;;;13.02;;
35685;SDS011;21808;42.142;24.720;2024-02-23T00:57:44;31.67;;;11.93;;
35685;SDS011;21808;42.142;24.720;2024-02-23T01:00:12;27.20;;;13.20;;
35685;SDS011;21808;42.142;24.720;2024-02-23T01:02:39;31.90;;;13.23;;
35685;SDS011;21808;42.142;24.720;2024-02-23T01:05:08;33.28;;;13.32;;
35685;SDS011;21808;42.142;24.720;2024-02-23T01:07:37;31.08;;;12.75;;
35685;SDS011;21808;42.142;24.720;2024-02-23T01:10:04;36.63;;;15.02;;
35685;SDS011;21808;42.142;24.720;2024-02-23T01:12:31;32.92;;;15.38;;
35685;SDS011;21808;42.142;24.720;2024-02-23T01:14:57;34.47;;;14.23;;
35685;SDS011;21808;42.142;24.720;2024-02-23T01:17:28;33.58;;;15.02;;
35685;SDS011;21808;42.142;24.720;2024-02-23T01:19:55;36.08;;;13.90;;
35685;SDS011;21808;42.142;24.720;2024-02-23T01:22:23;31.27;;;14.45;;
35685;SDS011;21808;42.142;24.720;2024-02-23T01:24:50;36.92;;;14.70;;
35685;SDS011;21808;42.142;24.720;2024-02-23T01:27:17;32.25;;;13.98;;
35685;SDS011;21808;42.142;24.720;2024-02-23T01:29:44;33.83;;;15.20;;
35685;SDS011;21808;42.142;24.720;2024-02-23T01:32:11;29.98;;;14.35;;
35685;SDS011;21808;42.142;24.720;2024-02-23T01:34:38;33.88;;;14.00;;
35685;SDS011;21808;42.142;24.720;2024-02-23T01:37:05;33.83;;;14.75;;
35685;SDS011;21808;42.142;24.720;2024-02-23T01:39:33;36.20;;;15.65;;
35685;SDS011;21808;42.142;24.720;2024-02-23T01:41:59;33.50;;;15.30;;
35685;SDS011;21808;42.142;24.720;2024-02-23T01:44:26;32.67;;;14.95;;
35685;SDS011;21808;42.142;24.720;2024-02-23T01:46:53;28.25;;;12.38;;
35685;SDS011;21808;42.142;24.720;2024-02-23T01:49:20;30.30;;;13.20;;
35685;SDS011;21808;42.142;24.720;2024-02-23T01:51:47;23.95;;;10.27;;
35685;SDS011;21808;42.142;24.720;2024-02-23T01:54:14;30.23;;;12.07;;
35685;SDS011;21808;42.142;24.720;2024-02-23T01:56:43;28.52;;;13.32;;
35685;SDS011;21808;42.142;24.720;2024-02-23T01:59:11;28.33;;;12.60;;
35685;SDS011;21808;42.142;24.720;2024-02-23T02:01:38;28.88;;;12.13;;
35685;SDS011;21808;42.142;24.720;2024-02-23T02:04:05;28.33;;;12.93;;
35685;SDS011;21808;42.142;24.720;2024-02-23T02:06:35;23.80;;;9.77;;
35685;SDS011;21808;42.142;24.720;2024-02-23T02:09:01;29.13;;;11.63;;
35685;SDS011;21808;42.142;24.720;2024-02-23T02:11:28;29.23;;;12.23;;
35685;SDS011;21808;42.142;24.720;2024-02-23T02:13:56;26.08;;;11.32;;
35685;SDS011;21808;42.142;24.720;2024-02-23T02:16:23;23.45;;;10.77;;
35685;SDS011;21808;42.142;24.720;2024-02-23T02:18:50;28.23;;;11.45;;
35685;SDS011;21808;42.142;24.720;2024-02-23T02:21:17;32.15;;;13.45;;
35685;SDS011;21808;42.142;24.720;2024-02-23T02:23:43;27.17;;;12.93;;
35685;SDS011;21808;42.142;24.720;2024-02-23T02:26:10;28.73;;;12.80;;
35685;SDS011;21808;42.142;24.720;2024-02-23T02:28:37;26.92;;;12.35;;
35685;SDS011;21808;42.142;24.720;2024-02-23T02:31:05;27.35;;;12.88;;
35685;SDS011;21808;42.142;24.720;2024-02-23T02:33:33;29.42;;;14.13;;
35685;SDS011;21808;42.142;24.720;2024-02-23T02:36:00;30.35;;;12.82;;
35685;SDS011;21808;42.142;24.720;2024-02-23T02:38:27;31.35;;;12.38;;
35685;SDS011;21808;42.142;24.720;2024-02-23T02:40:53;33.03;;;13.55;;
35685;SDS011;21808;42.142;24.720;2024-02-23T02:43:20;33.22;;;14.00;;
35685;SDS011;21808;42.142;24.720;2024-02-23T02:45:48;29.00;;;13.05;;
35685;SDS011;21808;42.142;24.720;2024-02-23T02:48:16;31.45;;;14.18;;
35685;SDS011;21808;42.142;24.720;2024-02-23T02:50:42;34.78;;;15.45;;
35685;SDS011;21808;42.142;24.720;2024-02-23T02:53:10;35.80;;;16.13;;
35685;SDS011;21808;42.142;24.720;2024-02-23T02:55:39;33.03;;;14.13;;
35685;SDS011;21808;42.142;24.720;2024-02-23T02:58:08;40.35;;;15.85;;
35685;SDS011;21808;42.142;24.720;2024-02-23T03:00:35;34.92;;;15.07;;
35685;SDS011;21808;42.142;24.720;2024-02-23T03:03:02;39.85;;;16.42;;
35685;SDS011;21808;42.142;24.720;2024-02-23T03:05:30;38.80;;;16.60;;
35685;SDS011;21808;42.142;24.720;2024-02-23T03:07:57;44.35;;;17.50;;
35685;SDS011;21808;42.142;24.720;2024-02-23T03:10:24;37.03;;;16.33;;
35685;SDS011;21808;42.142;24.720;2024-02-23T03:12:50;33.83;;;14.32;;
35685;SDS011;21808;42.142;24.720;2024-02-23T03:15:17;31.98;;;15.32;;
35685;SDS011;21808;42.142;24.720;2024-02-23T03:17:44;33.15;;;15.05;;
35685;SDS011;21808;42.142;24.720;2024-02-23T03:20:11;29.95;;;11.07;;
35685;SDS011;21808;42.142;24.720;2024-02-23T03:22:39;36.67;;;13.43;;
35685;SDS011;21808;42.142;24.720;2024-02-23T03:25:06;35.58;;;14.10;;
35685;SDS011;21808;42.142;24.720;2024-02-23T03:27:36;36.65;;;13.57;;
35685;SDS011;21808;42.142;24.720;2024-02-23T03:30:03;34.83;;;14.70;;
35685;SDS011;21808;42.142;24.720;2024-02-23T03:32:31;39.78;;;16.27;;
35685;SDS011;21808;42.142;24.720;2024-02-23T03:35:03;35.97;;;15.30;;
35685;SDS011;21808;42.142;24.720;2024-02-23T03:37:30;31.02;;;14.25;;
35685;SDS011;21808;42.142;24.720;2024-02-23T03:39:58;35.20;;;15.80;;
35685;SDS011;21808;42.142;24.720;2024-02-23T03:42:26;35.95;;;15.65;;
35685;SDS011;21808;42.142;24.720;2024-02-23T03:44:53;30.80;;;13.13;;
35685;SDS011;21808;42.142;24.720;2024-02-23T03:47:20;29.98;;;12.18;;
35685;SDS011;21808;42.142;24.720;2024-02-23T03:49:50;32.90;;;13.63;;
35685;SDS011;21808;42.142;24.720;2024-02-23T03:52:16;34.00;;;14.98;;
35685;SDS011;21808;42.142;24.720;2024-02-23T03:54:43;31.73;;;13.48;;
35685;SDS011;21808;42.142;24.720;2024-02-23T03:57:11;36.88;;;14.45;;
35685;SDS011;21808;42.142;24.720;2024-02-23T03:59:41;32.97;;;13.07;;
35685;SDS011;21808;42.142;24.720;2024-02-23T04:02:17;36.60;;;15.63;;
35685;SDS011;21808;42.142;24.720;2024-02-23T04:04:44;37.05;;;15.52;;
35685;SDS011;21808;42.142;24.720;2024-02-23T04:07:11;31.70;;;13.55;;
35685;SDS011;21808;42.142;24.720;2024-02-23T04:09:37;36.55;;;14.77;;
35685;SDS011;21808;42.142;24.720;2024-02-23T04:12:04;34.80;;;15.30;;
35685;SDS011;21808;42.142;24.720;2024-02-23T04:14:35;34.05;;;16.88;;
35685;SDS011;21808;42.142;24.720;2024-02-23T04:17:03;38.35;;;16.15;;
35685;SDS011;21808;42.142;24.720;2024-02-23T04:19:30;36.17;;;16.55;;
35685;SDS011;21808;42.142;24.720;2024-02-23T04:21:57;33.90;;;15.90;;
35685;SDS011;21808;42.142;24.720;2024-02-23T04:24:23;41.53;;;17.45;;
35685;SDS011;21808;42.142;24.720;2024-02-23T04:26:52;37.20;;;14.27;;
35685;SDS011;21808;42.142;24.720;2024-02-23T04:29:19;37.00;;;16.40;;
35685;SDS011;21808;42.142;24.720;2024-02-23T04:31:47;36.35;;;14.48;;
35685;SDS011;21808;42.142;24.720;2024-02-23T04:34:14;36.03;;;15.75;;
35685;SDS011;21808;42.142;24.720;2024-02-23T04:36:41;35.10;;;16.73;;
35685;SDS011;21808;42.142;24.720;2024-02-23T04:39:08;38.63;;;17.90;;
35685;SDS011;21808;42.142;24.720;2024-02-23T04:41:35;46.42;;;20.27;;
35685;SDS011;21808;42.142;24.720;2024-02-23T04:44:02;39.90;;;18.70;;
35685;SDS011;21808;42.142;24.720;2024-02-23T04:46:28;42.17;;;18.52;;
35685;SDS011;21808;42.142;24.720;2024-02-23T04:48:58;49.70;;;19.15;;
35685;SDS011;21808;42.142;24.720;2024-02-23T04:51:25;48.92;;;20.42;;
35685;SDS011;21808;42.142;24.720;2024-02-23T04:53:51;43.08;;;20.13;;
35685;SDS011;21808;42.142;24.720;2024-02-23T04:56:18;47.33;;;21.08;;
35685;SDS011;21808;42.142;24.720;2024-02-23T04:58:49;43.63;;;20.02;;
35685;SDS011;21808;42.142;24.720;2024-02-23T05:01:16;43.78;;;19.65;;
35685;SDS011;21808;42.142;24.720;2024-02-23T05:03:43;50.00;;;20.90;;
35685;SDS011;21808;42.142;24.720;2024-02-23T05:06:11;50.03;;;21.02;;
35685;SDS011;21808;42.142;24.720;2024-02-23T05:08:39;46.92;;;20.63;;
35685;SDS011;21808;42.142;24.720;2024-02-23T05:11:06;46.08;;;19.40;;
35685;SDS011;21808;42.142;24.720;2024-02-23T05:13:33;47.63;;;20.23;;
35685;SDS011;21808;42.142;24.720;2024-02-23T05:15:59;51.95;;;22.60;;
35685;SDS011;21808;42.142;24.720;2024-02-23T05:18:26;46.63;;;20.70;;
35685;SDS011;21808;42.142;24.720;2024-02-23T05:20:53;49.20;;;20.55;;
35685;SDS011;21808;42.142;24.720;2024-02-23T05:23:21;43.20;;;20.30;;
35685;SDS011;21808;42.142;24.720;2024-02-23T05:25:48;44.67;;;18.63;;
35685;SDS011;21808;42.142;24.720;2024-02-23T05:28:16;41.20;;;17.98;;
35685;SDS011;21808;42.142;24.720;2024-02-23T05:30:42;39.25;;;16.83;;
35685;SDS011;21808;42.142;24.720;2024-02-23T05:33:11;40.72;;;17.45;;
35685;SDS011;21808;42.142;24.720;2024-02-23T05:35:38;43.15;;;18.50;;
35685;SDS011;21808;42.142;24.720;2024-02-23T05:38:05;36.13;;;17.65;;
35685;SDS011;21808;42.142;24.720;2024-02-23T05:40:34;35.80;;;16.55;;
35685;SDS011;21808;42.142;24.720;2024-02-23T05:43:00;38.60;;;14.73;;
35685;SDS011;21808;42.142;24.720;2024-02-23T05:45:27;34.85;;;15.32;;
35685;SDS011;21808;42.142;24.720;2024-02-23T05:47:57;40.58;;;17.45;;
35685;SDS011;21808;42.142;24.720;2024-02-23T05:50:24;41.75;;;17.75;;
35685;SDS011;21808;42.142;24.720;2024-02-23T05:52:51;40.40;;;18.75;;
35685;SDS011;21808;42.142;24.720;2024-02-23T05:55:19;42.25;;;18.25;;
35685;SDS011;21808;42.142;24.720;2024-02-23T05:57:47;42.20;;;17.25;;
35685;SDS011;21808;42.142;24.720;2024-02-23T06:00:14;42.53;;;18.25;;
35685;SDS011;21808;42.142;24.720;2024-02-23T06:02:42;43.90;;;17.77;;
35685;SDS011;21808;42.142;24.720;2024-02-23T06:05:09;39.25;;;18.73;;
35685;SDS011;21808;42.142;24.720;2024-02-23T06:07:36;43.83;;;21.27;;
35685;SDS011;21808;42.142;24.720;2024-02-23T06:10:04;38.60;;;16.00;;
35685;SDS011;21808;42.142;24.720;2024-02-23T06:12:31;42.85;;;18.85;;
35685;SDS011;21808;42.142;24.720;2024-02-23T06:14:59;42.65;;;18.33;;
35685;SDS011;21808;42.142;24.720;2024-02-23T06:17:26;39.67;;;18.83;;
35685;SDS011;21808;42.142;24.720;2024-02-23T06:19:54;43.85;;;19.80;;
35685;SDS011;21808;42.142;24.720;2024-02-23T06:22:23;45.67;;;20.90;;
35685;SDS011;21808;42.142;24.720;2024-02-23T06:24:51;38.95;;;17.50;;
35685;SDS011;21808;42.142;24.720;2024-02-23T06:27:18;31.48;;;14.45;;
35685;SDS011;21808;42.142;24.720;2024-02-23T06:29:45;38.95;;;18.42;;
35685;SDS011;21808;42.142;24.720;2024-02-23T06:32:13;38.05;;;17.23;;
35685;SDS011;21808;42.142;24.720;2024-02-23T06:34:49;37.75;;;16.42;;
35685;SDS011;21808;42.142;24.720;2024-02-23T06:37:22;31.38;;;16.42;;
35685;SDS011;21808;42.142;24.720;2024-02-23T06:39:49;33.85;;;14.93;;
35685;SDS011;21808;42.142;24.720;2024-02-23T06:42:21;29.52;;;14.60;;
35685;SDS011;21808;42.142;24.720;2024-02-23T06:44:48;29.92;;;12.52;;
35685;SDS011;21808;42.142;24.720;2024-02-23T06:47:16;29.98;;;15.02;;
35685;SDS011;21808;42.142;24.720;2024-02-23T06:49:43;34.10;;;16.30;;
35685;SDS011;21808;42.142;24.720;2024-02-23T06:52:12;38.25;;;18.40;;
35685;SDS011;21808;42.142;24.720;2024-02-23T06:54:39;37.70;;;17.38;;
35685;SDS011;21808;42.142;24.720;2024-02-23T06:57:06;45.10;;;19.23;;
35685;SDS011;21808;42.142;24.720;2024-02-23T06:59:32;34.08;;;17.42;;
35685;SDS011;21808;42.142;24.720;2024-02-23T07:01:59;40.08;;;18.30;;
35685;SDS011;21808;42.142;24.720;2024-02-23T07:04:28;38.55;;;18.00;;
35685;SDS011;21808;42.142;24.720;2024-02-23T07:06:55;43.50;;;18.35;;
35685;SDS011;21808;42.142;24.720;2024-02-23T07:09:22;37.78;;;16.38;;
35685;SDS011;21808;42.142;24.720;2024-02-23T07:11:48;43.15;;;16.73;;
35685;SDS011;21808;42.142;24.720;2024-02-23T07:14:15;40.42;;;15.82;;
35685;SDS011;21808;42.142;24.720;2024-02-23T07:16:45;29.98;;;14.70;;
35685;SDS011;21808;42.142;24.720;2024-02-23T07:19:11;32.42;;;14.88;;
35685;SDS011;21808;42.142;24.720;2024-02-23T07:21:40;26.85;;;12.80;;
35685;SDS011;21808;42.142;24.720;2024-02-23T07:24:09;32.00;;;13.57;;
35685;SDS011;21808;42.142;24.720;2024-02-23T07:26:36;32.65;;;13.18;;
35685;SDS011;21808;42.142;24.720;2024-02-23T07:29:05;34.72;;;13.57;;
35685;SDS011;21808;42.142;24.720;2024-02-23T07:31:32;26.92;;;13.70;;
35685;SDS011;21808;42.142;24.720;2024-02-23T07:34:01;29.05;;;13.15;;
35685;SDS011;21808;42.142;24.720;2024-02-23T07:36:28;24.60;;;11.82;;
35685;SDS011;21808;42.142;24.720;2024-02-23T07:38:57;27.17;;;13.18;;
35685;SDS011;21808;42.142;24.720;2024-02-23T07:41:23;29.23;;;12.65;;
35685;SDS011;21808;42.142;24.720;2024-02-23T07:43:50;28.02;;;12.88;;
35685;SDS011;21808;42.142;24.720;2024-02-23T07:46:17;26.42;;;12.98;;
35685;SDS011;21808;42.142;24.720;2024-02-23T07:48:44;23.70;;;12.68;;
35685;SDS011;21808;42.142;24.720;2024-02-23T07:51:10;27.35;;;13.55;;
35685;SDS011;21808;42.142;24.720;2024-02-23T07:53:37;24.80;;;12.38;;
35685;SDS011;21808;42.142;24.720;2024-02-23T07:56:07;26.73;;;12.50;;
35685;SDS011;21808;42.142;24.720;2024-02-23T07:58:33;26.13;;;11.35;;
35685;SDS011;21808;42.142;24.720;2024-02-23T08:01:02;26.40;;;11.93;;
35685;SDS011;21808;42.142;24.720;2024-02-23T08:03:29;24.85;;;11.18;;
35685;SDS011;21808;42.142;24.720;2024-02-23T08:05:56;25.30;;;10.52;;
35685;SDS011;21808;42.142;24.720;2024-02-23T08:10:54;27.30;;;11.38;;
35685;SDS011;21808;42.142;24.720;2024-02-23T08:13:22;25.17;;;10.63;;
35685;SDS011;21808;42.142;24.720;2024-02-23T08:15:49;23.77;;;10.57;;
35685;SDS011;21808;42.142;24.720;2024-02-23T08:18:19;21.88;;;10.45;;
35685;SDS011;21808;42.142;24.720;2024-02-23T08:20:51;21.25;;;10.68;;
35685;SDS011;21808;42.142;24.720;2024-02-23T08:23:18;22.88;;;11.48;;
35685;SDS011;21808;42.142;24.720;2024-02-23T08:25:49;21.45;;;10.95;;
35685;SDS011;21808;42.142;24.720;2024-02-23T08:28:17;21.85;;;11.35;;
35685;SDS011;21808;42.142;24.720;2024-02-23T08:30:45;22.48;;;11.00;;
35685;SDS011;21808;42.142;24.720;2024-02-23T08:33:13;21.23;;;10.60;;
35685;SDS011;21808;42.142;24.720;2024-02-23T08:35:40;23.13;;;12.07;;
35685;SDS011;21808;42.142;24.720;2024-02-23T08:38:06;23.17;;;11.65;;
35685;SDS011;21808;42.142;24.720;2024-02-23T08:40:34;24.23;;;11.52;;
35685;SDS011;21808;42.142;24.720;2024-02-23T08:43:00;22.48;;;11.07;;
35685;SDS011;21808;42.142;24.720;2024-02-23T08:45:27;24.98;;;11.20;;
35685;SDS011;21808;42.142;24.720;2024-02-23T08:47:55;23.63;;;11.73;;
35685;SDS011;21808;42.142;24.720;2024-02-23T08:50:22;21.60;;;10.98;;
35685;SDS011;21808;42.142;24.720;2024-02-23T08:52:49;21.67;;;10.52;;
35685;SDS011;21808;42.142;24.720;2024-02-23T08:55:16;23.65;;;10.85;;
35685;SDS011;21808;42.142;24.720;2024-02-23T08:57:43;22.08;;;11.43;;
35685;SDS011;21808;42.142;24.720;2024-02-23T09:00:10;25.98;;;11.35;;
35685;SDS011;21808;42.142;24.720;2024-02-23T09:02:40;22.52;;;11.05;;
35685;SDS011;21808;42.142;24.720;2024-02-23T09:05:10;24.30;;;11.55;;
35685;SDS011;21808;42.142;24.720;2024-02-23T09:07:37;22.02;;;10.98;;
35685;SDS011;21808;42.142;24.720;2024-02-23T09:10:05;22.92;;;12.02;;
35685;SDS011;21808;42.142;24.720;2024-02-23T09:12:32;21.55;;;10.73;;
35685;SDS011;21808;42.142;24.720;2024-02-23T09:15:01;30.90;;;12.48;;
35685;SDS011;21808;42.142;24.720;2024-02-23T09:17:27;22.83;;;10.98;;
35685;SDS011;21808;42.142;24.720;2024-02-23T09:19:54;22.92;;;11.13;;
35685;SDS011;21808;42.142;24.720;2024-02-23T09:22:22;27.63;;;13.23;;
35685;SDS011;21808;42.142;24.720;2024-02-23T09:24:49;30.00;;;13.65;;
35685;SDS011;21808;42.142;24.720;2024-02-23T09:27:16;25.98;;;13.93;;
35685;SDS011;21808;42.142;24.720;2024-02-23T09:29:43;24.60;;;12.65;;
35685;SDS011;21808;42.142;24.720;2024-02-23T09:32:09;28.27;;;12.30;;
35685;SDS011;21808;42.142;24.720;2024-02-23T09:34:36;23.98;;;11.90;;
35685;SDS011;21808;42.142;24.720;2024-02-23T09:37:03;26.52;;;11.77;;
35685;SDS011;21808;42.142;24.720;2024-02-23T09:39:32;25.02;;;11.73;;
35685;SDS011;21808;42.142;24.720;2024-02-23T09:41:58;25.65;;;12.00;;
35685;SDS011;21808;42.142;24.720;2024-02-23T09:44:26;39.17;;;19.67;;
35685;SDS011;21808;42.142;24.720;2024-02-23T09:46:54;21.58;;;11.43;;
35685;SDS011;21808;42.142;24.720;2024-02-23T09:49:21;22.15;;;11.55;;
35685;SDS011;21808;42.142;24.720;2024-02-23T09:51:48;26.60;;;13.00;;
35685;SDS011;21808;42.142;24.720;2024-02-23T09:54:15;28.02;;;13.35;;
35685;SDS011;21808;42.142;24.720;2024-02-23T09:56:47;25.75;;;11.68;;
35685;SDS011;21808;42.142;24.720;2024-02-23T09:59:16;27.35;;;12.45;;
35685;SDS011;21808;42.142;24.720;2024-02-23T10:01:42;26.13;;;12.02;;
35685;SDS011;21808;42.142;24.720;2024-02-23T10:04:11;27.15;;;13.48;;
35685;SDS011;21808;42.142;24.720;2024-02-23T10:06:38;27.05;;;12.43;;
35685;SDS011;21808;42.142;24.720;2024-02-23T10:09:05;21.60;;;11.40;;
35685;SDS011;21808;42.142;24.720;2024-02-23T10:11:39;26.35;;;12.52;;
35685;SDS011;21808;42.142;24.720;2024-02-23T10:14:08;26.52;;;12.85;;
35685;SDS011;21808;42.142;24.720;2024-02-23T10:16:34;21.17;;;10.95;;
35685;SDS011;21808;42.142;24.720;2024-02-23T10:19:01;22.50;;;10.95;;
35685;SDS011;21808;42.142;24.720;2024-02-23T10:21:28;21.27;;;9.88;;
35685;SDS011;21808;42.142;24.720;2024-02-23T10:23:55;21.95;;;10.70;;
35685;SDS011;21808;42.142;24.720;2024-02-23T10:26:22;20.55;;;11.30;;
35685;SDS011;21808;42.142;24.720;2024-02-23T10:28:49;22.00;;;11.02;;
35685;SDS011;21808;42.142;24.720;2024-02-23T10:31:21;26.95;;;10.75;;
35685;SDS011;21808;42.142;24.720;2024-02-23T10:33:51;23.27;;;10.57;;
35685;SDS011;21808;42.142;24.720;2024-02-23T10:36:19;20.65;;;10.25;;
35685;SDS011;21808;42.142;24.720;2024-02-23T10:38:48;21.35;;;11.82;;
35685;SDS011;21808;42.142;24.720;2024-02-23T10:41:18;22.70;;;11.98;;
35685;SDS011;21808;42.142;24.720;2024-02-23T10:43:46;20.88;;;10.25;;
35685;SDS011;21808;42.142;24.720;2024-02-23T10:46:16;23.73;;;10.55;;
35685;SDS011;21808;42.142;24.720;2024-02-23T10:48:46;23.02;;;11.25;;
35685;SDS011;21808;42.142;24.720;2024-02-23T10:51:15;20.83;;;10.63;;
35685;SDS011;21808;42.142;24.720;2024-02-23T10:53:46;22.70;;;11.85;;
35685;SDS011;21808;42.142;24.720;2024-02-23T10:56:15;21.55;;;10.57;;
35685;SDS011;21808;42.142;24.720;2024-02-23T10:58:47;21.60;;;10.25;;
35685;SDS011;21808;42.142;24.720;2024-02-23T11:01:14;20.05;;;9.82;;
35685;SDS011;21808;42.142;24.720;2024-02-23T11:03:42;20.75;;;10.25;;
35685;SDS011;21808;42.142;24.720;2024-02-23T11:06:10;22.92;;;10.77;;
35685;SDS011;21808;42.142;24.720;2024-02-23T11:08:38;22.50;;;11.15;;
35685;SDS011;21808;42.142;24.720;2024-02-23T11:11:08;28.02;;;11.57;;
35685;SDS011;21808;42.142;24.720;2024-02-23T11:13:35;22.95;;;10.38;;
35685;SDS011;21808;42.142;24.720;2024-02-23T11:16:05;21.02;;;9.55;;
35685;SDS011;21808;42.142;24.720;2024-02-23T11:18:34;27.30;;;10.07;;
35685;SDS011;21808;42.142;24.720;2024-02-23T11:21:01;22.10;;;10.88;;
35685;SDS011;21808;42.142;24.720;2024-02-23T11:23:39;21.42;;;10.32;;
35685;SDS011;21808;42.142;24.720;2024-02-23T11:26:06;17.73;;;9.52;;
35685;SDS011;21808;42.142;24.720;2024-02-23T11:28:41;18.83;;;8.68;;
35685;SDS011;21808;42.142;24.720;2024-02-23T11:31:11;19.30;;;8.93;;
35685;SDS011;21808;42.142;24.720;2024-02-23T11:33:38;22.33;;;9.90;;
35685;SDS011;21808;42.142;24.720;2024-02-23T11:36:05;17.17;;;8.75;;
35685;SDS011;21808;42.142;24.720;2024-02-23T11:38:32;20.42;;;8.60;;
35685;SDS011;21808;42.142;24.720;2024-02-23T11:41:00;20.90;;;9.77;;
35685;SDS011;21808;42.142;24.720;2024-02-23T11:43:28;19.65;;;9.50;;
35685;SDS011;21808;42.142;24.720;2024-02-23T11:45:55;18.92;;;9.00;;
35685;SDS011;21808;42.142;24.720;2024-02-23T11:48:22;18.67;;;8.95;;
35685;SDS011;21808;42.142;24.720;2024-02-23T11:50:50;18.20;;;9.13;;
35685;SDS011;21808;42.142;24.720;2024-02-23T11:53:17;22.80;;;11.15;;
35685;SDS011;21808;42.142;24.720;2024-02-23T11:55:45;19.95;;;9.35;;
35685;SDS011;21808;42.142;24.720;2024-02-23T11:58:13;19.85;;;10.05;;
35685;SDS011;21808;42.142;24.720;2024-02-23T12:00:44;18.58;;;9.80;;
35685;SDS011;21808;42.142;24.720;2024-02-23T12:03:12;21.05;;;9.23;;
35685;SDS011;21808;42.142;24.720;2024-02-23T12:05:39;18.38;;;8.23;;
35685;SDS011;21808;42.142;24.720;2024-02-23T12:08:06;18.98;;;9.30;;
35685;SDS011;21808;42.142;24.720;2024-02-23T12:10:37;19.48;;;9.35;;
35685;SDS011;21808;42.142;24.720;2024-02-23T12:13:04;19.27;;;9.70;;
35685;SDS011;21808;42.142;24.720;2024-02-23T12:15:38;16.40;;;7.90;;
35685;SDS011;21808;42.142;24.720;2024-02-23T12:18:05;17.38;;;8.85;;
35685;SDS011;21808;42.142;24.720;2024-02-23T12:20:33;22.50;;;10.48;;
35685;SDS011;21808;42.142;24.720;2024-02-23T12:23:00;19.02;;;9.43;;
35685;SDS011;21808;42.142;24.720;2024-02-23T12:25:27;21.73;;;9.80;;
35685;SDS011;21808;42.142;24.720;2024-02-23T12:27:54;20.52;;;9.40;;
35685;SDS011;21808;42.142;24.720;2024-02-23T12:30:21;19.17;;;8.60;;
35685;SDS011;21808;42.142;24.720;2024-02-23T12:32:49;17.88;;;9.27;;
35685;SDS011;21808;42.142;24.720;2024-02-23T12:35:16;19.67;;;8.75;;
35685;SDS011;21808;42.142;24.720;2024-02-23T12:37:43;17.60;;;8.73;;
35685;SDS011;21808;42.142;24.720;2024-02-23T12:40:11;16.50;;;8.27;;
35685;SDS011;21808;42.142;24.720;2024-02-23T12:42:37;19.73;;;9.00;;
35685;SDS011;21808;42.142;24.720;2024-02-23T12:45:04;22.17;;;7.85;;
35685;SDS011;21808;42.142;24.720;2024-02-23T12:47:31;18.30;;;8.50;;
35685;SDS011;21808;42.142;24.720;2024-02-23T12:49:59;16.42;;;7.80;;
35685;SDS011;21808;42.142;24.720;2024-02-23T12:52:29;17.55;;;7.85;;
35685;SDS011;21808;42.142;24.720;2024-02-23T12:54:56;16.05;;;8.00;;
35685;SDS011;21808;42.142;24.720;2024-02-23T12:57:22;15.35;;;7.22;;
35685;SDS011;21808;42.142;24.720;2024-02-23T12:59:49;17.40;;;7.30;;
35685;SDS011;21808;42.142;24.720;2024-02-23T13:02:17;21.48;;;7.50;;
35685;SDS011;21808;42.142;24.720;2024-02-23T13:04:44;15.98;;;7.40;;
35685;SDS011;21808;42.142;24.720;2024-02-23T13:07:17;15.65;;;7.53;;
35685;SDS011;21808;42.142;24.720;2024-02-23T13:09:43;16.20;;;6.90;;
35685;SDS011;21808;42.142;24.720;2024-02-23T13:12:10;16.60;;;7.65;;
35685;SDS011;21808;42.142;24.720;2024-02-23T13:14:37;14.65;;;7.63;;
35685;SDS011;21808;42.142;24.720;2024-02-23T13:17:05;27.65;;;8.77;;
35685;SDS011;21808;42.142;24.720;2024-02-23T13:19:32;20.30;;;7.95;;
35685;SDS011;21808;42.142;24.720;2024-02-23T13:21:59;15.98;;;8.20;;
35685;SDS011;21808;42.142;24.720;2024-02-23T13:24:28;16.35;;;7.47;;
35685;SDS011;21808;42.142;24.720;2024-02-23T13:26:55;14.68;;;7.10;;
35685;SDS011;21808;42.142;24.720;2024-02-23T13:29:23;14.63;;;6.30;;
35685;SDS011;21808;42.142;24.720;2024-02-23T13:31:50;13.30;;;6.75;;
35685;SDS011;21808;42.142;24.720;2024-02-23T13:34:17;14.13;;;6.60;;
35685;SDS011;21808;42.142;24.720;2024-02-23T13:36:44;14.07;;;6.93;;
35685;SDS011;21808;42.142;24.720;2024-02-23T13:39:11;16.83;;;7.15;;
35685;SDS011;21808;42.142;24.720;2024-02-23T13:41:39;15.57;;;6.50;;
35685;SDS011;21808;42.142;24.720;2024-02-23T13:44:07;15.35;;;6.78;;
35685;SDS011;21808;42.142;24.720;2024-02-23T13:46:35;13.98;;;6.18;;
35685;SDS011;21808;42.142;24.720;2024-02-23T13:49:02;18.38;;;7.13;;
35685;SDS011;21808;42.142;24.720;2024-02-23T13:51:30;12.90;;;6.22;;
35685;SDS011;21808;42.142;24.720;2024-02-23T13:53:57;14.93;;;6.72;;
35685;SDS011;21808;42.142;24.720;2024-02-23T13:56:23;13.18;;;6.88;;
35685;SDS011;21808;42.142;24.720;2024-02-23T13:58:55;14.73;;;6.82;;
35685;SDS011;21808;42.142;24.720;2024-02-23T14:01:21;14.57;;;6.25;;
35685;SDS011;21808;42.142;24.720;2024-02-23T14:03:48;14.20;;;5.88;;
35685;SDS011;21808;42.142;24.720;2024-02-23T14:06:15;13.93;;;6.35;;
35685;SDS011;21808;42.142;24.720;2024-02-23T14:08:42;16.85;;;6.50;;
35685;SDS011;21808;42.142;24.720;2024-02-23T14:11:10;14.52;;;6.10;;
35685;SDS011;21808;42.142;24.720;2024-02-23T14:13:37;14.27;;;6.55;;
35685;SDS011;21808;42.142;24.720;2024-02-23T14:16:06;13.57;;;6.57;;